Time;durP1;ratioP1;P1;durP2;ratioP2;P2;SDS_P1;SDS_P2;PMS_P1;PMS_P2;Temp;Humidity;BMP_temperature;BMP_pressure;BME280_temperature;BME280_humidity;BME280_pressure;Samples;Min_cycle;Max_cycle;Signal;HPM_P1;HPM_P2
2023/12/25 00:00:07;;;;;;;5.70;1.40;;;11.50;99.90;;;;;;5000504;28;20030;-87
2023/12/25 00:02:33;;;;;;;4.50;1.38;;;10.80;99.90;;;;;;4996304;28;20081;-88
2023/12/25 00:04:59;;;;;;;6.93;1.55;;;10.90;99.90;;;;;;4983910;28;20037;-89
2023/12/25 00:07:24;;;;;;;4.60;1.40;;;10.80;99.90;;;;;;5000644;28;20050;-88
2023/12/25 00:09:51;;;;;;;7.50;1.70;;;10.70;99.90;;;;;;4986912;28;20034;-87
2023/12/25 00:12:37;;;;;;;4.47;1.52;;;10.60;99.90;;;;;;4974567;28;20504;-87
2023/12/25 00:15:03;;;;;;;4.65;1.38;;;10.60;99.90;;;;;;4997247;28;20046;-88
2023/12/25 00:17:30;;;;;;;7.22;1.17;;;10.60;99.90;;;;;;4983051;28;20038;-88
2023/12/25 00:19:56;;;;;;;4.53;1.40;;;10.60;99.90;;;;;;4979678;28;20038;-89
2023/12/25 00:22:22;;;;;;;6.75;1.63;;;10.60;99.90;;;;;;4979628;28;20026;-89
2023/12/25 00:24:47;;;;;;;5.68;1.50;;;10.50;99.90;;;;;;4979024;28;20022;-85
2023/12/25 00:27:31;;;;;;;10.85;1.83;;;11.50;99.90;;;;;;4982862;28;20031;-88
2023/12/25 00:29:58;;;;;;;9.23;2.15;;;10.40;99.90;;;;;;4980989;28;20119;-86
2023/12/25 00:32:24;;;;;;;7.55;1.60;;;11.10;99.90;;;;;;4992824;28;20031;-88
2023/12/25 00:34:55;;;;;;;5.30;1.60;;;11.00;99.90;;;;;;4979917;28;20500;-89
2023/12/25 00:37:21;;;;;;;8.52;2.03;;;10.60;99.90;;;;;;4978385;28;20189;-88
2023/12/25 00:39:49;;;;;;;5.78;1.40;;;10.20;99.90;;;;;;4994779;28;20488;-88
2023/12/25 00:42:20;;;;;;;8.82;1.40;;;10.30;99.90;;;;;;4978983;28;20058;-89
2023/12/25 00:44:46;;;;;;;10.77;1.88;;;10.30;99.90;;;;;;4988608;28;20034;-88
2023/12/25 00:47:11;;;;;;;5.00;1.35;;;10.30;99.90;;;;;;4983877;28;20522;-90
2023/12/25 00:49:37;;;;;;;9.13;1.45;;;11.20;99.90;;;;;;5009343;28;20018;-88
2023/12/25 00:52:03;;;;;;;4.45;1.55;;;10.40;99.90;;;;;;4996019;28;20045;-88
2023/12/25 00:54:31;;;;;;;7.32;1.92;;;10.30;99.90;;;;;;5013713;28;20045;-89
2023/12/25 00:56:57;;;;;;;6.85;1.40;;;11.60;99.90;;;;;;4980999;28;20038;-86
2023/12/25 00:59:23;;;;;;;6.93;1.63;;;10.60;99.90;;;;;;4997147;28;20088;-89
2023/12/25 01:01:49;;;;;;;7.00;1.52;;;11.30;99.90;;;;;;4978224;28;20432;-85
2023/12/25 01:04:15;;;;;;;9.10;1.42;;;10.30;99.90;;;;;;4976714;28;20030;-87
2023/12/25 01:06:50;;;;;;;5.60;1.48;;;10.40;99.90;;;;;;4976706;28;20054;-88
2023/12/25 01:09:19;;;;;;;5.45;1.52;;;9.80;99.90;;;;;;4993661;28;20035;-87
2023/12/25 01:11:52;;;;;;;9.32;2.05;;;10.90;99.90;;;;;;4983170;28;21171;-87
2023/12/25 01:14:18;;;;;;;6.88;1.27;;;10.10;99.90;;;;;;4993740;28;20046;-89
2023/12/25 01:16:44;;;;;;;6.30;2.00;;;10.10;99.90;;;;;;4997058;28;20030;-87
2023/12/25 01:19:11;;;;;;;5.78;1.60;;;10.10;99.90;;;;;;4978377;28;20542;-88
2023/12/25 01:21:37;;;;;;;8.68;1.92;;;10.10;99.90;;;;;;4966849;28;20027;-86
2023/12/25 01:24:03;;;;;;;7.97;1.83;;;10.80;99.90;;;;;;4982890;28;20030;-87
2023/12/25 01:26:30;;;;;;;9.55;2.00;;;10.80;99.90;;;;;;4998971;28;20041;-89
2023/12/25 01:28:56;;;;;;;5.15;1.92;;;11.10;99.90;;;;;;4980092;28;20037;-87
2023/12/25 01:31:22;;;;;;;17.23;3.03;;;10.10;99.90;;;;;;4983026;28;20400;-88
2023/12/25 01:33:49;;;;;;;8.02;1.67;;;10.00;99.90;;;;;;4966025;28;20036;-87
2023/12/25 01:36:17;;;;;;;11.52;1.80;;;10.00;99.90;;;;;;4984635;28;20034;-88
2023/12/25 01:38:43;;;;;;;11.23;1.85;;;10.60;99.90;;;;;;4980925;28;20026;-88
2023/12/25 01:41:09;;;;;;;8.23;1.45;;;10.70;99.90;;;;;;4999128;28;20034;-87
2023/12/25 01:43:35;;;;;;;9.57;1.92;;;8.90;99.90;;;;;;5002641;28;20094;-88
2023/12/25 01:46:02;;;;;;;7.68;1.70;;;9.90;99.90;;;;;;4958211;28;20034;-87
2023/12/25 01:48:38;;;;;;;7.22;1.73;;;9.90;99.90;;;;;;4992811;28;20035;-87
2023/12/25 01:51:08;;;;;;;7.28;1.63;;;10.20;99.90;;;;;;4981105;28;20030;-86
2023/12/25 01:53:35;;;;;;;6.22;1.83;;;9.90;99.90;;;;;;4981609;28;20030;-87
2023/12/25 01:56:08;;;;;;;5.97;1.50;;;9.80;99.90;;;;;;4998047;28;20038;-88
2023/12/25 01:58:34;;;;;;;6.55;1.50;;;9.80;99.90;;;;;;4982462;28;20136;-88
2023/12/25 02:00:59;;;;;;;8.50;1.90;;;10.30;99.90;;;;;;4998443;28;20106;-87
2023/12/25 02:03:31;;;;;;;7.47;1.92;;;10.90;99.90;;;;;;4979810;28;20030;-87
2023/12/25 02:05:57;;;;;;;7.25;1.75;;;10.90;99.90;;;;;;4973959;28;20781;-85
2023/12/25 02:08:23;;;;;;;8.18;2.05;;;9.60;99.90;;;;;;4996812;28;20042;-88
2023/12/25 02:10:49;;;;;;;7.38;1.98;;;9.90;99.90;;;;;;5000218;28;20035;-88
2023/12/25 02:13:23;;;;;;;8.10;2.40;;;10.90;99.90;;;;;;4994976;28;20022;-87
2023/12/25 02:15:50;;;;;;;11.63;1.70;;;9.80;99.90;;;;;;4993064;28;20031;-88
2023/12/25 02:18:16;;;;;;;8.40;1.60;;;9.70;99.90;;;;;;4977498;28;20026;-89
2023/12/25 02:20:42;;;;;;;10.82;1.60;;;11.00;99.90;;;;;;4992419;28;20037;-89
2023/12/25 02:23:11;;;;;;;6.28;1.38;;;9.80;99.90;;;;;;4978501;28;20026;-90
2023/12/25 02:25:58;;;;;;;7.25;1.90;;;9.70;99.90;;;;;;4995054;28;20034;-89
2023/12/25 02:28:25;;;;;;;5.93;1.77;;;9.80;99.90;;;;;;4981416;28;20065;-89
2023/12/25 02:30:51;;;;;;;3.25;1.15;;;10.30;99.90;;;;;;4991181;28;20026;-88
2023/12/25 02:33:20;;;;;;;8.30;2.13;;;10.90;99.90;;;;;;4997335;28;20106;-86
2023/12/25 02:35:45;;;;;;;3.88;1.10;;;9.80;99.90;;;;;;4989186;28;20056;-88
2023/12/25 02:38:17;;;;;;;6.25;1.52;;;10.80;99.90;;;;;;5020373;28;20030;-87
2023/12/25 02:40:43;;;;;;;5.22;1.38;;;9.70;99.90;;;;;;4999878;28;20034;-89
2023/12/25 02:43:10;;;;;;;3.65;1.35;;;9.70;99.90;;;;;;4994473;28;20027;-89
2023/12/25 02:45:36;;;;;;;4.95;1.30;;;9.70;99.90;;;;;;5010046;28;20064;-89
2023/12/25 02:48:02;;;;;;;7.80;2.05;;;9.60;99.90;;;;;;4995321;28;20042;-86
2023/12/25 02:50:28;;;;;;;5.25;1.60;;;9.50;99.90;;;;;;4985797;28;20046;-86
2023/12/25 02:52:53;;;;;;;5.82;2.13;;;9.60;99.90;;;;;;4995943;28;20030;-87
2023/12/25 02:55:19;;;;;;;5.55;2.20;;;9.90;99.90;;;;;;4999441;28;20041;-86
2023/12/25 02:57:45;;;;;;;6.60;1.75;;;10.50;99.90;;;;;;4993449;28;20031;-89
2023/12/25 03:00:11;;;;;;;7.45;2.40;;;9.60;99.90;;;;;;4983244;28;20117;-88
2023/12/25 03:02:37;;;;;;;7.50;2.08;;;9.80;99.90;;;;;;4993207;28;20102;-88
2023/12/25 03:05:03;;;;;;;4.70;1.85;;;10.10;99.90;;;;;;4991979;28;20073;-88
2023/12/25 03:07:28;;;;;;;4.20;1.40;;;9.80;99.90;;;;;;4976960;28;20026;-89
2023/12/25 03:09:54;;;;;;;7.20;1.58;;;9.90;99.90;;;;;;5000669;28;20496;-89
2023/12/25 03:12:20;;;;;;;6.53;2.17;;;10.30;99.90;;;;;;4985700;28;20073;-89
2023/12/25 03:14:46;;;;;;;9.93;2.88;;;10.80;99.90;;;;;;4979674;28;20030;-88
2023/12/25 03:17:15;;;;;;;4.88;1.63;;;10.10;99.90;;;;;;4982780;28;20019;-90
2023/12/25 03:19:40;;;;;;;6.55;1.80;;;10.20;99.90;;;;;;4976332;28;20022;-89
2023/12/25 03:22:06;;;;;;;5.20;1.20;;;10.40;99.90;;;;;;4995448;28;20097;-90
2023/12/25 03:24:32;;;;;;;6.38;1.33;;;9.90;99.90;;;;;;4995176;28;20019;-89
2023/12/25 03:26:58;;;;;;;5.00;1.50;;;10.60;99.90;;;;;;4982118;28;20035;-89
2023/12/25 03:29:23;;;;;;;6.28;1.50;;;10.90;99.90;;;;;;5002126;28;20034;-90
2023/12/25 03:31:49;;;;;;;5.65;1.67;;;10.30;99.90;;;;;;4997405;28;20033;-89
2023/12/25 03:34:18;;;;;;;5.20;1.48;;;9.80;99.90;;;;;;4986155;28;20031;-89
2023/12/25 03:36:44;;;;;;;8.18;1.90;;;10.90;99.90;;;;;;4977794;28;20035;-86
2023/12/25 03:39:10;;;;;;;5.53;1.63;;;9.90;99.90;;;;;;4976586;28;20026;-88
2023/12/25 03:41:36;;;;;;;5.10;1.52;;;9.00;99.90;;;;;;4979162;28;20032;-88
2023/12/25 03:44:01;;;;;;;5.72;1.77;;;10.70;99.90;;;;;;4984155;28;20030;-86
2023/12/25 03:46:27;;;;;;;6.85;1.73;;;9.60;99.90;;;;;;4996473;28;20034;-88
2023/12/25 03:48:53;;;;;;;6.57;1.88;;;9.70;99.90;;;;;;4984301;28;20122;-86
2023/12/25 03:51:21;;;;;;;3.58;1.60;;;11.00;99.90;;;;;;4998416;28;20038;-87
2023/12/25 03:53:47;;;;;;;7.28;1.60;;;11.10;99.90;;;;;;4998848;28;20034;-88
2023/12/25 03:56:20;;;;;;;4.35;1.40;;;10.80;99.90;;;;;;5001557;28;20089;-89
2023/12/25 03:58:46;;;;;;;8.35;1.85;;;10.40;99.90;;;;;;4981381;28;20053;-89
2023/12/25 04:01:12;;;;;;;3.13;1.48;;;9.70;99.90;;;;;;5002270;28;20034;-85
2023/12/25 04:03:41;;;;;;;8.23;1.50;;;9.50;99.90;;;;;;4988427;28;20038;-90
2023/12/25 04:06:09;;;;;;;5.10;1.40;;;9.80;99.90;;;;;;5001952;28;20070;-86
2023/12/25 04:08:35;;;;;;;4.28;1.50;;;9.50;99.90;;;;;;4981705;28;20026;-88
2023/12/25 04:11:01;;;;;;;3.92;1.70;;;9.00;99.90;;;;;;5005817;28;20037;-88
2023/12/25 04:13:27;;;;;;;4.90;1.30;;;10.40;99.90;;;;;;4980399;28;20065;-88
2023/12/25 04:15:56;;;;;;;3.67;1.30;;;9.60;99.90;;;;;;4993976;28;20487;-88
2023/12/25 04:18:22;;;;;;;3.13;1.52;;;9.70;99.90;;;;;;4996395;28;20042;-87
2023/12/25 04:20:47;;;;;;;3.78;1.35;;;10.10;99.90;;;;;;4982864;28;20041;-87
2023/12/25 04:23:14;;;;;;;6.20;1.80;;;9.60;99.90;;;;;;4985573;28;20157;-85
2023/12/25 04:25:40;;;;;;;5.40;1.73;;;10.70;99.90;;;;;;5002343;28;20464;-87
2023/12/25 04:28:06;;;;;;;4.35;1.60;;;10.00;99.90;;;;;;4998629;28;20033;-85
2023/12/25 04:30:31;;;;;;;9.65;2.17;;;10.60;99.90;;;;;;4998040;28;20035;-88
2023/12/25 04:33:00;;;;;;;2.47;1.20;;;9.40;99.90;;;;;;4983732;28;20045;-86
2023/12/25 04:35:26;;;;;;;4.65;1.60;;;9.50;99.90;;;;;;4995585;28;20042;-89
2023/12/25 04:37:51;;;;;;;5.85;1.45;;;9.50;99.90;;;;;;4983886;28;20049;-88
2023/12/25 04:40:17;;;;;;;5.38;2.00;;;10.10;99.90;;;;;;4981495;28;20542;-89
2023/12/25 04:42:43;;;;;;;5.50;1.88;;;10.20;99.90;;;;;;4996405;28;20385;-88
2023/12/25 04:45:08;;;;;;;3.28;1.35;;;10.20;99.90;;;;;;4996263;28;20106;-88
2023/12/25 04:47:34;;;;;;;5.80;1.73;;;9.50;99.90;;;;;;4997428;28;20105;-90
2023/12/25 04:50:03;;;;;;;7.32;1.40;;;9.40;99.90;;;;;;5002522;28;20042;-88
2023/12/25 04:52:29;;;;;;;3.08;1.42;;;9.40;99.90;;;;;;4981496;28;20047;-87
2023/12/25 04:54:55;;;;;;;6.68;1.88;;;9.80;99.90;;;;;;4975740;28;20026;-89
2023/12/25 04:57:21;;;;;;;5.03;1.38;;;8.80;99.90;;;;;;4989595;28;20032;-88
2023/12/25 04:59:46;;;;;;;6.95;1.75;;;9.50;99.90;;;;;;4986225;28;20065;-88
2023/12/25 05:02:12;;;;;;;7.22;1.60;;;9.60;99.90;;;;;;4986366;28;20037;-87
2023/12/25 05:04:40;;;;;;;7.20;1.65;;;9.50;99.90;;;;;;4997168;28;20054;-86
2023/12/25 05:07:08;;;;;;;4.85;1.38;;;10.50;99.90;;;;;;4983866;28;20027;-91
2023/12/25 05:09:33;;;;;;;5.25;1.50;;;9.40;99.90;;;;;;5004272;28;20033;-88
2023/12/25 05:11:59;;;;;;;3.80;1.40;;;9.40;99.90;;;;;;4981169;28;20042;-89
2023/12/25 05:14:28;;;;;;;3.10;1.35;;;8.60;99.90;;;;;;5000897;28;20026;-88
2023/12/25 05:16:54;;;;;;;4.32;1.02;;;9.30;99.90;;;;;;4980811;28;20433;-86
2023/12/25 05:19:27;;;;;;;1.58;0.90;;;9.10;99.90;;;;;;4982572;28;20026;-87
2023/12/25 05:21:52;;;;;;;3.35;1.00;;;9.40;99.90;;;;;;4981258;28;20026;-88
2023/12/25 05:24:18;;;;;;;3.83;1.13;;;10.70;99.90;;;;;;4999444;28;20029;-90
2023/12/25 05:26:44;;;;;;;4.13;1.15;;;10.80;99.90;;;;;;5000326;28;20053;-89
2023/12/25 05:29:09;;;;;;;3.22;1.10;;;10.40;99.90;;;;;;4991862;28;20030;-87
2023/12/25 05:31:36;;;;;;;5.63;1.60;;;9.40;99.90;;;;;;5001874;28;20096;-87
2023/12/25 05:34:02;;;;;;;4.82;1.48;;;8.50;99.90;;;;;;4983005;28;20035;-88
2023/12/25 05:36:28;;;;;;;3.90;1.10;;;9.60;99.90;;;;;;4997740;28;20053;-89
2023/12/25 05:38:54;;;;;;;2.53;1.45;;;10.30;99.90;;;;;;4982995;28;20026;-87
2023/12/25 05:41:19;;;;;;;6.00;1.50;;;10.20;99.90;;;;;;5003269;28;20049;-87
2023/12/25 05:43:46;;;;;;;4.50;1.33;;;9.20;99.90;;;;;;4993642;28;20029;-88
2023/12/25 05:46:12;;;;;;;3.67;1.13;;;9.20;99.90;;;;;;4969194;28;20106;-88
2023/12/25 05:48:38;;;;;;;3.00;1.20;;;9.20;99.90;;;;;;4984064;28;20026;-88
2023/12/25 05:51:04;;;;;;;3.97;1.10;;;9.20;99.90;;;;;;4986320;28;20185;-85
2023/12/25 05:53:36;;;;;;;3.28;1.10;;;9.20;99.90;;;;;;5001395;28;20027;-87
2023/12/25 05:56:03;;;;;;;2.55;1.10;;;9.80;99.90;;;;;;5000787;28;20031;-88
2023/12/25 05:58:29;;;;;;;5.15;1.30;;;9.30;99.90;;;;;;4992359;28;20086;-89
2023/12/25 06:00:55;;;;;;;4.00;1.20;;;9.50;99.90;;;;;;4995857;28;20058;-88
2023/12/25 06:03:21;;;;;;;3.58;1.40;;;10.20;99.90;;;;;;4997082;28;20054;-87
2023/12/25 06:05:47;;;;;;;3.47;1.40;;;10.40;99.90;;;;;;4995006;28;20570;-89
2023/12/25 06:08:12;;;;;;;5.88;1.30;;;10.40;99.90;;;;;;4996526;28;20117;-89
2023/12/25 06:10:38;;;;;;;3.95;1.17;;;9.30;99.90;;;;;;4980273;28;20118;-88
2023/12/25 06:13:03;;;;;;;3.33;1.10;;;9.30;99.90;;;;;;5003521;28;20073;-88
2023/12/25 06:15:29;;;;;;;5.13;1.23;;;9.20;99.90;;;;;;4990857;28;20026;-86
2023/12/25 06:17:55;;;;;;;4.20;1.13;;;9.90;99.90;;;;;;4997292;28;20045;-87
2023/12/25 06:20:23;;;;;;;2.17;1.10;;;9.40;99.90;;;;;;4998837;28;20522;-88
2023/12/25 06:22:49;;;;;;;3.20;1.13;;;9.60;99.90;;;;;;4979085;28;20022;-89
2023/12/25 06:25:15;;;;;;;3.40;1.20;;;9.20;99.90;;;;;;4979260;28;20111;-88
2023/12/25 06:27:40;;;;;;;3.05;1.08;;;9.80;99.90;;;;;;4984647;28;20045;-89
2023/12/25 06:30:06;;;;;;;4.88;1.30;;;9.50;99.90;;;;;;4979161;28;20034;-87
2023/12/25 06:32:32;;;;;;;2.58;1.00;;;9.20;99.90;;;;;;4993461;28;20365;-88
2023/12/25 06:34:58;;;;;;;4.15;1.10;;;10.50;99.90;;;;;;4978550;28;20453;-87
2023/12/25 06:37:23;;;;;;;2.97;1.17;;;9.80;99.90;;;;;;5003323;28;20033;-89
2023/12/25 06:39:49;;;;;;;4.70;1.42;;;9.20;99.90;;;;;;4980088;28;20026;-88
2023/12/25 06:42:18;;;;;;;2.88;1.02;;;10.50;99.90;;;;;;4967148;28;20040;-89
2023/12/25 06:44:43;;;;;;;3.42;1.13;;;9.40;99.90;;;;;;4974676;28;20039;-89
2023/12/25 06:47:10;;;;;;;4.45;1.00;;;9.20;99.90;;;;;;4973364;28;20468;-88
2023/12/25 06:49:35;;;;;;;1.35;1.02;;;10.30;99.90;;;;;;5001149;28;20068;-89
2023/12/25 06:52:01;;;;;;;3.28;1.10;;;10.30;99.90;;;;;;4999011;28;20134;-88
2023/12/25 06:54:27;;;;;;;4.50;1.10;;;10.00;99.90;;;;;;4981926;28;20030;-89
2023/12/25 06:56:52;;;;;;;3.17;1.15;;;10.40;99.90;;;;;;4983872;28;20034;-87
2023/12/25 06:59:19;;;;;;;3.33;1.05;;;10.30;99.90;;;;;;5002879;28;20027;-89
2023/12/25 07:01:45;;;;;;;3.00;1.00;;;9.80;99.90;;;;;;5012320;28;20026;-90
2023/12/25 07:04:11;;;;;;;2.92;1.10;;;10.20;99.90;;;;;;4996006;28;20045;-88
2023/12/25 07:06:37;;;;;;;2.97;0.90;;;9.60;99.90;;;;;;4996470;28;20023;-88
2023/12/25 07:09:03;;;;;;;1.90;1.08;;;10.50;99.90;;;;;;5007958;28;20043;-89
2023/12/25 07:11:29;;;;;;;1.92;0.90;;;9.30;99.90;;;;;;4994283;28;20041;-88
2023/12/25 07:13:59;;;;;;;3.85;0.90;;;9.20;99.90;;;;;;4974086;28;20030;-88
2023/12/25 07:16:26;;;;;;;2.20;1.00;;;9.40;99.90;;;;;;4977001;28;20101;-88
2023/12/25 07:18:53;;;;;;;1.88;0.80;;;9.20;99.90;;;;;;4977180;28;20085;-88
2023/12/25 07:21:19;;;;;;;3.28;0.90;;;9.80;99.90;;;;;;4974871;28;20054;-88
2023/12/25 07:23:46;;;;;;;2.63;0.73;;;9.60;99.90;;;;;;4981664;28;20034;-89
2023/12/25 07:26:12;;;;;;;3.63;0.82;;;8.60;99.90;;;;;;4996519;28;20030;-88
2023/12/25 07:28:38;;;;;;;3.42;0.80;;;10.40;99.90;;;;;;4977390;28;20102;-87
2023/12/25 07:31:03;;;;;;;0.63;0.63;;;9.20;99.90;;;;;;4976869;28;20062;-88
2023/12/25 07:33:29;;;;;;;1.83;0.80;;;10.30;99.90;;;;;;4997532;28;20034;-88
2023/12/25 07:35:55;;;;;;;2.25;0.80;;;10.60;99.90;;;;;;4975291;28;20065;-88
2023/12/25 07:38:23;;;;;;;3.78;0.80;;;9.80;99.90;;;;;;4997204;28;20022;-85
2023/12/25 07:40:52;;;;;;;1.70;0.90;;;9.20;99.90;;;;;;4991962;28;20114;-88
2023/12/25 07:43:18;;;;;;;2.70;0.90;;;10.20;99.90;;;;;;4998579;28;20030;-88
2023/12/25 07:45:44;;;;;;;1.85;0.90;;;9.60;99.90;;;;;;4995735;28;20089;-88
2023/12/25 07:48:10;;;;;;;3.00;0.80;;;9.40;99.90;;;;;;4998645;28;20034;-88
2023/12/25 07:50:36;;;;;;;0.98;0.73;;;8.60;99.90;;;;;;4924599;28;1804297;-86
2023/12/25 07:53:02;;;;;;;1.25;0.70;;;9.10;99.90;;;;;;4996352;28;20089;-88
2023/12/25 07:55:30;;;;;;;1.17;0.65;;;9.20;99.90;;;;;;5001954;28;20038;-87
2023/12/25 07:57:56;;;;;;;1.10;0.70;;;9.20;99.90;;;;;;4991112;28;20030;-88
2023/12/25 08:00:22;;;;;;;2.85;0.70;;;9.40;99.90;;;;;;4990154;28;20480;-86
2023/12/25 08:02:48;;;;;;;2.28;0.88;;;9.70;99.90;;;;;;4982014;28;20026;-89
2023/12/25 08:05:13;;;;;;;2.92;0.70;;;9.70;99.90;;;;;;4997118;28;20034;-88
2023/12/25 08:07:39;;;;;;;1.33;0.73;;;9.80;99.90;;;;;;4995287;28;20022;-86
2023/12/25 08:10:05;;;;;;;4.60;0.82;;;9.20;99.90;;;;;;4978826;28;20026;-91
2023/12/25 08:12:31;;;;;;;1.85;0.93;;;9.20;99.90;;;;;;4979928;28;20038;-86
2023/12/25 08:14:57;;;;;;;1.60;0.70;;;9.20;99.90;;;;;;4992833;28;20046;-88
2023/12/25 08:17:25;;;;;;;0.70;0.60;;;9.30;99.90;;;;;;4976964;28;20117;-86
2023/12/25 08:19:54;;;;;;;1.88;0.52;;;9.20;99.90;;;;;;4992672;28;20046;-86
2023/12/25 08:22:23;;;;;;;3.45;0.60;;;10.10;99.90;;;;;;4975895;28;20038;-88
2023/12/25 08:24:50;;;;;;;1.08;0.57;;;10.10;99.90;;;;;;4993381;28;20035;-87
2023/12/25 08:27:15;;;;;;;1.95;0.50;;;9.20;99.90;;;;;;4979951;28;20041;-89
2023/12/25 08:29:42;;;;;;;0.93;0.60;;;10.20;99.90;;;;;;4980035;28;20027;-88
2023/12/25 08:32:08;;;;;;;1.33;0.82;;;10.10;99.90;;;;;;5001435;28;20019;-88
2023/12/25 08:34:37;;;;;;;0.88;0.70;;;9.40;99.90;;;;;;4977265;28;20038;-88
2023/12/25 08:37:03;;;;;;;2.53;0.57;;;9.30;99.90;;;;;;4977886;28;20119;-89
2023/12/25 08:39:29;;;;;;;1.42;0.60;;;9.30;99.90;;;;;;4976529;28;20053;-88
2023/12/25 08:41:56;;;;;;;1.30;0.43;;;9.80;99.90;;;;;;4972395;28;20301;-90
2023/12/25 08:44:23;;;;;;;1.38;0.57;;;10.30;99.90;;;;;;4996054;28;20555;-87
2023/12/25 08:46:52;;;;;;;5.00;0.60;;;10.30;99.90;;;;;;4994711;28;20033;-87
2023/12/25 08:49:18;;;;;;;1.00;0.60;;;9.50;99.90;;;;;;4969821;28;20022;-86
2023/12/25 08:51:43;;;;;;;0.98;0.40;;;9.40;99.90;;;;;;4981675;28;20121;-87
2023/12/25 08:54:18;;;;;;;0.38;0.38;;;9.70;99.90;;;;;;4990439;28;20018;-90
2023/12/25 08:56:44;;;;;;;1.40;0.68;;;9.40;99.90;;;;;;5005243;28;20057;-90
2023/12/25 08:59:09;;;;;;;1.92;0.60;;;10.30;99.90;;;;;;5005148;28;20038;-87
2023/12/25 09:01:36;;;;;;;2.33;0.60;;;9.40;99.90;;;;;;5004901;28;20026;-88
2023/12/25 09:04:02;;;;;;;2.28;0.50;;;10.10;99.90;;;;;;4992782;28;20409;-90
2023/12/25 09:06:28;;;;;;;1.15;0.75;;;10.10;99.90;;;;;;4982071;28;20037;-89
2023/12/25 09:08:55;;;;;;;0.80;0.60;;;9.30;99.90;;;;;;4979333;28;20038;-86
2023/12/25 09:11:21;;;;;;;1.67;0.60;;;9.70;99.90;;;;;;4978160;28;20027;-86
2023/12/25 09:13:46;;;;;;;4.35;0.90;;;10.20;99.90;;;;;;4979952;28;20105;-88
2023/12/25 09:16:13;;;;;;;2.03;0.68;;;9.60;99.90;;;;;;5002656;28;20042;-86
2023/12/25 09:18:38;;;;;;;4.50;0.73;;;9.40;99.90;;;;;;4980262;28;20030;-85
2023/12/25 09:21:04;;;;;;;0.60;0.60;;;9.30;99.90;;;;;;4987332;28;20019;-88
2023/12/25 09:23:30;;;;;;;1.10;0.50;;;9.30;99.90;;;;;;4974741;28;20050;-88
2023/12/25 09:25:56;;;;;;;0.82;0.50;;;10.30;99.90;;;;;;4975137;28;20014;-86
2023/12/25 09:28:27;;;;;;;1.17;0.40;;;10.10;99.90;;;;;;4966189;28;20765;-89
2023/12/25 09:30:53;;;;;;;0.50;0.50;;;10.20;99.90;;;;;;4990858;28;20093;-87
2023/12/25 09:33:19;;;;;;;0.82;0.57;;;10.30;99.90;;;;;;4983435;28;20060;-87
2023/12/25 09:35:45;;;;;;;3.33;1.75;;;9.50;99.90;;;;;;4975710;28;20038;-87
2023/12/25 09:38:11;;;;;;;0.40;0.40;;;8.70;99.90;;;;;;4975648;28;20488;-87
2023/12/25 09:40:37;;;;;;;0.50;0.50;;;9.60;99.90;;;;;;4979543;28;20034;-85
2023/12/25 09:43:03;;;;;;;0.50;0.40;;;9.40;99.90;;;;;;4976078;28;20045;-86
2023/12/25 09:45:34;;;;;;;0.70;0.50;;;9.50;99.90;;;;;;4992585;28;20034;-87
2023/12/25 09:48:03;;;;;;;2.55;0.43;;;10.50;99.90;;;;;;4977138;28;20498;-91
2023/12/25 09:50:30;;;;;;;1.30;0.50;;;9.50;99.90;;;;;;4977314;28;20052;-87
2023/12/25 09:52:56;;;;;;;1.15;0.70;;;10.50;99.90;;;;;;4997603;28;20034;-87
2023/12/25 09:55:25;;;;;;;0.75;0.55;;;9.50;99.90;;;;;;4996260;28;20058;-87
2023/12/25 09:57:51;;;;;;;1.08;0.63;;;9.50;99.90;;;;;;4984921;28;20026;-86
2023/12/25 10:00:22;;;;;;;5.68;0.88;;;10.60;99.90;;;;;;4985995;28;20053;-86
2023/12/25 10:02:51;;;;;;;1.40;0.63;;;9.50;99.90;;;;;;5005105;28;20064;-88
2023/12/25 10:05:18;;;;;;;1.08;0.70;;;9.40;99.90;;;;;;4998627;28;20038;-86
2023/12/25 10:07:44;;;;;;;1.48;0.82;;;10.00;99.90;;;;;;4999052;28;20038;-86
2023/12/25 10:10:10;;;;;;;0.70;0.70;;;9.30;99.90;;;;;;4993416;28;20027;-87
2023/12/25 10:12:35;;;;;;;1.13;1.00;;;10.00;99.90;;;;;;5004385;28;20029;-86
2023/12/25 10:15:04;;;;;;;3.03;1.17;;;9.80;99.90;;;;;;4986562;28;20033;-85
2023/12/25 10:17:29;;;;;;;2.17;1.10;;;9.30;99.90;;;;;;4984342;28;20022;-88
2023/12/25 10:19:55;;;;;;;2.30;1.30;;;9.60;99.90;;;;;;4984292;28;20046;-85
2023/12/25 10:22:39;;;;;;;1.83;1.10;;;9.10;99.90;;;;;;5004252;28;20026;-88
2023/12/25 10:25:06;;;;;;;3.13;1.30;;;9.20;99.90;;;;;;5002424;28;20030;-86
2023/12/25 10:27:39;;;;;;;2.42;1.55;;;9.20;99.90;;;;;;4999427;28;20030;-86
2023/12/25 10:30:15;;;;;;;2.95;1.80;;;9.70;99.90;;;;;;4987312;28;20026;-85
2023/12/25 10:32:47;;;;;;;2.40;1.65;;;9.40;99.90;;;;;;4997301;28;20026;-86
2023/12/25 10:35:22;;;;;;;3.05;2.00;;;9.20;99.90;;;;;;5011221;28;20031;-87
2023/12/25 10:37:48;;;;;;;3.20;2.10;;;9.20;99.90;;;;;;5004598;28;20484;-87
2023/12/25 10:40:26;;;;;;;3.38;2.40;;;9.50;99.90;;;;;;4995894;28;20045;-87
2023/12/25 10:42:54;;;;;;;3.72;2.30;;;9.20;99.90;;;;;;4997198;28;20076;-87
2023/12/25 10:45:22;;;;;;;5.25;2.58;;;9.90;99.90;;;;;;4980457;28;20037;-89
2023/12/25 10:47:53;;;;;;;5.32;2.80;;;9.60;99.90;;;;;;5006326;28;20113;-87
2023/12/25 10:50:20;;;;;;;5.32;3.25;;;9.20;99.90;;;;;;4986988;28;20034;-86
2023/12/25 10:52:54;;;;;;;5.32;2.90;;;10.10;99.90;;;;;;4969904;28;20548;-87
2023/12/25 10:55:42;;;;;;;4.47;2.70;;;10.00;99.90;;;;;;5000209;28;20034;-89
2023/12/25 10:58:11;;;;;;;5.82;2.90;;;8.80;99.90;;;;;;4986099;28;20142;-85
2023/12/25 11:00:59;;;;;;;8.20;3.13;;;9.50;99.90;;;;;;4984320;28;20077;-90
2023/12/25 11:03:26;;;;;;;4.40;3.13;;;9.30;99.90;;;;;;4986467;28;20018;-88
2023/12/25 11:05:52;;;;;;;4.78;3.08;;;10.10;99.90;;;;;;4983617;28;20018;-86
2023/12/25 11:08:18;;;;;;;4.85;3.25;;;10.20;99.90;;;;;;4998679;28;20041;-87
2023/12/25 11:10:45;;;;;;;6.25;3.75;;;9.30;99.90;;;;;;5004058;28;20034;-86
2023/12/25 11:13:12;;;;;;;6.13;3.95;;;9.60;99.90;;;;;;4996780;28;20038;-88
2023/12/25 11:15:39;;;;;;;6.85;3.70;;;9.30;99.90;;;;;;5003663;28;20033;-87
2023/12/25 11:18:07;;;;;;;9.40;4.20;;;9.40;99.90;;;;;;4984222;28;20046;-89
2023/12/25 11:20:33;;;;;;;5.43;3.33;;;9.20;99.90;;;;;;5000692;28;20534;-88
2023/12/25 11:23:04;;;;;;;4.78;3.85;;;9.20;99.90;;;;;;4991145;28;20031;-85
2023/12/25 11:25:33;;;;;;;5.30;4.00;;;9.40;99.90;;;;;;4999324;28;20086;-88
2023/12/25 11:28:04;;;;;;;7.07;4.00;;;9.20;99.90;;;;;;5012993;28;20094;-87
2023/12/25 11:30:32;;;;;;;5.75;4.00;;;9.20;99.90;;;;;;4992181;28;20500;-84
2023/12/25 11:33:00;;;;;;;5.85;4.30;;;9.20;99.90;;;;;;4995257;28;20030;-86
2023/12/25 11:35:31;;;;;;;5.95;3.70;;;9.60;99.90;;;;;;4980182;28;20039;-89
2023/12/25 11:38:19;;;;;;;5.65;3.80;;;9.50;99.90;;;;;;5006850;28;20033;-89
2023/12/25 11:40:51;;;;;;;4.75;3.53;;;9.10;99.90;;;;;;5009912;28;20034;-88
2023/12/25 11:43:21;;;;;;;4.43;3.15;;;9.30;99.90;;;;;;5001839;28;20026;-85
2023/12/25 11:45:50;;;;;;;4.97;3.70;;;10.20;99.90;;;;;;4991299;28;20026;-84
2023/12/25 11:48:16;;;;;;;4.95;3.60;;;9.20;99.90;;;;;;4985002;28;20085;-88
2023/12/25 11:50:45;;;;;;;5.40;3.80;;;9.30;99.90;;;;;;4985587;28;20148;-86
2023/12/25 11:53:35;;;;;;;5.90;4.03;;;9.20;99.90;;;;;;5013898;28;20034;-85
2023/12/25 11:56:02;;;;;;;5.72;3.42;;;9.10;99.90;;;;;;4991761;28;20027;-90
2023/12/25 11:58:29;;;;;;;6.72;3.50;;;9.40;99.90;;;;;;5009958;28;20040;-87
2023/12/25 12:00:54;;;;;;;5.35;3.30;;;9.20;99.90;;;;;;5008829;28;20042;-87
2023/12/25 12:03:20;;;;;;;5.15;3.13;;;9.30;99.90;;;;;;5001285;28;20046;-86
2023/12/25 12:05:46;;;;;;;5.45;3.55;;;9.60;99.90;;;;;;5010321;28;20030;-87
2023/12/25 12:08:12;;;;;;;5.38;3.50;;;9.30;99.90;;;;;;5005477;28;20124;-88
2023/12/25 12:10:42;;;;;;;4.65;3.28;;;9.30;99.90;;;;;;5011052;28;20057;-90
2023/12/25 12:13:07;;;;;;;6.70;3.20;;;9.40;99.90;;;;;;4994446;28;20025;-88
2023/12/25 12:15:33;;;;;;;4.50;3.20;;;9.30;99.90;;;;;;5002233;28;20026;-90
2023/12/25 12:18:00;;;;;;;4.13;2.75;;;9.60;99.90;;;;;;5002920;28;20339;-89
2023/12/25 12:20:25;;;;;;;5.03;2.72;;;9.40;99.90;;;;;;5006865;28;20025;-88
2023/12/25 12:22:53;;;;;;;5.10;2.92;;;9.30;99.90;;;;;;4996037;28;20011;-88
2023/12/25 12:25:19;;;;;;;5.15;2.50;;;10.00;99.90;;;;;;5012997;28;20054;-86
2023/12/25 12:27:46;;;;;;;4.68;2.45;;;9.30;99.90;;;;;;5001888;28;20054;-86
2023/12/25 12:30:12;;;;;;;11.00;6.15;;;9.30;99.90;;;;;;5020436;28;20022;-88
2023/12/25 12:32:40;;;;;;;3.90;2.22;;;9.20;99.90;;;;;;5017769;28;20034;-88
2023/12/25 12:35:09;;;;;;;3.65;2.30;;;9.10;99.90;;;;;;5004711;28;20090;-86
2023/12/25 12:37:36;;;;;;;3.65;2.30;;;9.30;99.90;;;;;;4994227;28;20041;-88
2023/12/25 12:40:02;;;;;;;3.40;2.10;;;9.40;99.90;;;;;;4992241;28;20500;-84
2023/12/25 12:42:31;;;;;;;3.10;1.92;;;9.30;99.90;;;;;;4993532;28;20045;-86
2023/12/25 12:44:57;;;;;;;2.50;1.70;;;9.30;99.90;;;;;;5010341;28;20022;-89
2023/12/25 12:47:23;;;;;;;2.20;1.30;;;9.40;99.90;;;;;;5010031;28;20050;-86
2023/12/25 12:49:50;;;;;;;3.90;1.73;;;9.30;99.90;;;;;;5004767;28;20088;-88
2023/12/25 12:52:15;;;;;;;3.38;1.70;;;9.30;99.90;;;;;;5007706;28;20072;-86